Time;durP1;ratioP1;P1;durP2;ratioP2;P2;SDS_P1;SDS_P2;PMS_P1;PMS_P2;Temp;Humidity;BMP_temperature;BMP_pressure;BME280_temperature;BME280_humidity;BME280_pressure;Samples;Min_cycle;Max_cycle;Signal;HPM_P1;HPM_P2
2023/06/04 00:01:02;;;;;;;4.00;3.25;;;19.90;97.70;;;;;;7393477;19;20266;-76
2023/06/04 00:03:28;;;;;;;5.28;3.33;;;19.70;97.80;;;;;;7392017;19;20138;-76
2023/06/04 00:05:54;;;;;;;6.25;3.63;;;19.50;98.80;;;;;;7391954;19;20202;-77
2023/06/04 00:08:20;;;;;;;3.78;3.10;;;19.50;98.80;;;;;;7394197;19;20567;-76
2023/06/04 00:10:46;;;;;;;5.47;3.30;;;19.50;98.80;;;;;;7393511;19;20666;-77
2023/06/04 00:13:12;;;;;;;4.60;3.53;;;19.60;99.10;;;;;;7400652;19;20144;-76
2023/06/04 00:15:38;;;;;;;4.38;3.50;;;19.60;99.00;;;;;;7403416;19;20138;-76
2023/06/04 00:18:05;;;;;;;5.25;3.67;;;19.50;99.00;;;;;;7399437;19;20139;-76
2023/06/04 00:20:31;;;;;;;3.72;3.30;;;19.50;99.30;;;;;;7403514;19;20127;-77
2023/06/04 00:22:57;;;;;;;5.20;3.08;;;19.50;99.10;;;;;;7401636;19;20210;-75
2023/06/04 00:25:23;;;;;;;4.80;3.97;;;19.20;99.60;;;;;;7396778;19;20176;-77
2023/06/04 00:27:48;;;;;;;4.72;3.45;;;19.30;99.80;;;;;;7398678;19;20126;-77
2023/06/04 00:30:14;;;;;;;5.72;3.38;;;19.30;99.90;;;;;;7400748;19;20137;-77
2023/06/04 00:32:40;;;;;;;4.15;3.20;;;19.40;99.80;;;;;;7399875;19;20133;-76
2023/06/04 00:35:06;;;;;;;6.78;3.20;;;19.30;99.80;;;;;;7400961;19;20926;-75
2023/06/04 00:37:32;;;;;;;6.57;4.03;;;19.40;99.90;;;;;;7401563;19;20801;-76
2023/06/04 00:39:59;;;;;;;5.43;3.53;;;19.50;99.00;;;;;;7393844;19;20150;-76
2023/06/04 00:42:25;;;;;;;5.13;3.47;;;19.50;99.00;;;;;;7392225;19;20189;-75
2023/06/04 00:44:51;;;;;;;6.32;3.75;;;19.10;99.40;;;;;;7394377;19;20469;-76
2023/06/04 00:47:19;;;;;;;4.85;3.42;;;18.90;99.90;;;;;;7394360;19;20141;-75
2023/06/04 00:49:45;;;;;;;5.95;2.92;;;19.10;99.90;;;;;;7392621;19;20194;-76
2023/06/04 00:52:15;;;;;;;5.95;3.45;;;19.20;99.90;;;;;;7393109;19;20139;-76
2023/06/04 00:54:41;;;;;;;5.22;3.47;;;19.00;99.90;;;;;;7391987;19;20135;-76
2023/06/04 00:57:08;;;;;;;4.72;3.28;;;18.90;99.90;;;;;;7391738;19;20139;-76
2023/06/04 00:59:37;;;;;;;4.45;3.30;;;18.80;99.90;;;;;;7387955;19;20139;-75
2023/06/04 01:02:12;;;;;;;5.85;3.45;;;18.80;99.90;;;;;;7388328;19;20265;-75
2023/06/04 01:05:17;;;;;;;6.97;3.40;;;18.80;99.90;;;;;;7390190;19;20691;-77
2023/06/04 01:07:46;;;;;;;5.00;3.28;;;18.60;99.90;;;;;;7388779;19;20498;-76
2023/06/04 01:10:13;;;;;;;3.88;3.08;;;18.60;99.90;;;;;;7391747;19;20163;-76
2023/06/04 01:12:42;;;;;;;6.00;3.35;;;18.70;99.90;;;;;;7387658;19;20127;-76
2023/06/04 01:15:09;;;;;;;4.50;2.70;;;18.60;99.90;;;;;;7390240;19;20123;-77
2023/06/04 01:17:46;;;;;;;4.40;3.10;;;18.40;99.90;;;;;;7388673;19;20139;-76
2023/06/04 01:20:32;;;;;;;4.68;3.38;;;18.60;99.90;;;;;;7389513;19;20130;-75
2023/06/04 01:23:59;;;;;;;4.75;2.92;;;18.50;99.90;;;;;;7389991;19;20270;-76
2023/06/04 01:26:27;;;;;;;4.57;3.30;;;18.50;99.90;;;;;;7386963;19;20143;-77
2023/06/04 01:28:54;;;;;;;3.92;3.20;;;18.50;99.90;;;;;;7385514;19;20589;-77
2023/06/04 01:31:22;;;;;;;4.07;3.15;;;18.60;99.90;;;;;;7386325;19;20138;-77
2023/06/04 01:33:53;;;;;;;6.32;3.42;;;18.60;99.90;;;;;;7387174;19;20151;-76
2023/06/04 01:36:20;;;;;;;5.70;3.45;;;18.80;99.90;;;;;;7390247;19;20123;-76
2023/06/04 01:38:46;;;;;;;7.75;3.53;;;18.70;99.90;;;;;;7388160;19;20486;-75
2023/06/04 01:41:11;;;;;;;4.25;3.17;;;18.80;99.90;;;;;;7388900;19;20206;-76
2023/06/04 01:43:37;;;;;;;3.72;2.92;;;18.70;99.90;;;;;;7386950;19;20210;-76
2023/06/04 01:46:03;;;;;;;4.30;2.75;;;18.60;99.90;;;;;;7389519;19;20139;-76
2023/06/04 01:48:29;;;;;;;3.53;2.97;;;18.50;99.90;;;;;;7389622;19;20133;-76
2023/06/04 01:50:56;;;;;;;4.10;3.20;;;18.60;99.90;;;;;;7389745;19;20261;-77
2023/06/04 01:53:21;;;;;;;6.78;3.35;;;18.50;99.90;;;;;;7387032;19;20460;-76
2023/06/04 01:55:49;;;;;;;4.50;3.30;;;18.60;99.90;;;;;;7387418;19;20131;-75
2023/06/04 01:58:22;;;;;;;5.82;2.85;;;18.70;99.90;;;;;;7384354;19;20159;-76
2023/06/04 02:00:52;;;;;;;3.50;2.58;;;18.60;99.90;;;;;;7390229;19;20134;-77
2023/06/04 02:03:18;;;;;;;4.75;3.33;;;18.40;99.90;;;;;;7388550;19;20138;-76
2023/06/04 02:05:46;;;;;;;3.47;2.70;;;18.30;99.90;;;;;;7389286;19;20489;-76
2023/06/04 02:08:18;;;;;;;4.35;3.00;;;18.30;99.90;;;;;;7387810;19;20158;-76
2023/06/04 02:10:46;;;;;;;4.10;3.00;;;18.30;99.90;;;;;;7386507;19;20173;-75
2023/06/04 02:13:13;;;;;;;4.05;3.03;;;18.50;99.90;;;;;;7389540;19;20233;-76
2023/06/04 02:15:40;;;;;;;4.35;3.08;;;18.30;99.90;;;;;;7389456;19;20138;-77
2023/06/04 02:18:17;;;;;;;3.83;3.00;;;18.60;99.90;;;;;;7387389;19;20134;-77
2023/06/04 02:20:45;;;;;;;3.78;2.83;;;18.40;99.90;;;;;;7377931;19;20154;-75
2023/06/04 02:23:11;;;;;;;4.07;3.10;;;18.30;99.90;;;;;;7387075;19;20143;-76
2023/06/04 02:25:37;;;;;;;4.55;3.05;;;18.40;99.90;;;;;;7385715;19;20138;-76
2023/06/04 02:28:03;;;;;;;6.20;2.83;;;18.40;99.90;;;;;;7387334;19;20135;-76
2023/06/04 02:30:28;;;;;;;3.13;2.60;;;18.60;99.90;;;;;;7387485;19;20201;-76
2023/06/04 02:32:54;;;;;;;5.93;3.05;;;18.50;99.90;;;;;;7386198;19;20859;-77
2023/06/04 02:35:22;;;;;;;3.05;2.25;;;18.40;99.90;;;;;;7383478;19;20151;-77
2023/06/04 02:37:49;;;;;;;5.35;2.60;;;18.30;99.90;;;;;;7389242;19;20134;-77
2023/06/04 02:40:15;;;;;;;3.03;2.70;;;18.40;99.90;;;;;;7387416;19;20675;-77
2023/06/04 02:42:41;;;;;;;3.58;2.40;;;18.40;99.90;;;;;;7384916;19;20181;-76
2023/06/04 02:45:07;;;;;;;2.90;2.50;;;18.50;99.70;;;;;;7384478;19;20156;-77
2023/06/04 02:47:33;;;;;;;4.80;2.80;;;18.40;99.30;;;;;;7384988;19;20609;-77
2023/06/04 02:49:59;;;;;;;3.50;2.25;;;18.40;99.60;;;;;;7384204;19;20179;-79
2023/06/04 02:52:25;;;;;;;3.42;2.53;;;18.40;99.30;;;;;;7386740;19;20139;-75
2023/06/04 02:54:51;;;;;;;5.80;2.50;;;18.40;99.70;;;;;;7386573;19;20147;-76
2023/06/04 02:57:17;;;;;;;4.43;2.53;;;18.30;99.60;;;;;;7387128;19;20139;-75
2023/06/04 02:59:43;;;;;;;2.28;1.92;;;18.40;99.00;;;;;;7381390;19;20491;-76
2023/06/04 03:02:09;;;;;;;3.15;2.38;;;18.40;98.30;;;;;;7385992;19;20143;-76
2023/06/04 03:04:38;;;;;;;2.45;2.05;;;18.40;98.30;;;;;;7385408;19;20142;-76
2023/06/04 03:07:04;;;;;;;4.32;2.35;;;18.30;98.60;;;;;;7385473;19;20139;-76
2023/06/04 03:09:30;;;;;;;2.83;1.98;;;18.30;97.90;;;;;;7386044;19;20138;-77
2023/06/04 03:12:01;;;;;;;3.22;2.30;;;18.20;98.00;;;;;;7384592;19;20147;-76
2023/06/04 03:14:32;;;;;;;4.10;2.05;;;18.20;98.00;;;;;;7386931;19;20138;-76
2023/06/04 03:17:07;;;;;;;4.70;2.17;;;18.10;98.10;;;;;;7387208;19;20184;-75
2023/06/04 03:19:37;;;;;;;4.38;1.88;;;18.10;97.90;;;;;;7383083;19;20206;-76
2023/06/04 03:22:05;;;;;;;3.10;2.35;;;18.20;97.20;;;;;;7385164;19;20206;-77
2023/06/04 03:24:36;;;;;;;2.13;1.67;;;18.10;97.30;;;;;;7384034;19;20270;-76
2023/06/04 03:27:03;;;;;;;2.58;1.80;;;18.00;97.10;;;;;;7388199;19;20134;-76
2023/06/04 03:29:30;;;;;;;2.85;2.00;;;17.90;97.80;;;;;;7384153;19;20134;-76
2023/06/04 03:31:58;;;;;;;2.50;2.00;;;17.90;97.70;;;;;;7385142;19;20559;-77
2023/06/04 03:34:26;;;;;;;3.72;1.73;;;18.00;97.50;;;;;;7384946;19;20130;-77
2023/06/04 03:36:53;;;;;;;3.28;1.80;;;18.10;96.70;;;;;;7387490;19;20170;-76
2023/06/04 03:39:19;;;;;;;3.38;1.77;;;18.00;96.50;;;;;;7384124;19;20142;-77
2023/06/04 03:41:45;;;;;;;3.45;2.13;;;17.70;97.60;;;;;;7383418;19;20138;-77
2023/06/04 03:44:13;;;;;;;3.22;1.98;;;17.80;97.80;;;;;;7385439;19;20178;-78
2023/06/04 03:46:39;;;;;;;1.55;1.45;;;17.50;97.70;;;;;;7386246;19;20161;-76
2023/06/04 03:49:05;;;;;;;5.32;2.00;;;17.20;98.40;;;;;;7391750;19;20147;-77
2023/06/04 03:51:32;;;;;;;2.05;1.73;;;17.30;98.50;;;;;;7388693;19;20160;-76
2023/06/04 03:53:58;;;;;;;4.60;2.17;;;17.50;98.30;;;;;;7393248;19;20160;-76
2023/06/04 03:56:26;;;;;;;2.70;2.00;;;17.70;98.60;;;;;;7392273;19;20146;-76
2023/06/04 03:58:52;;;;;;;2.28;1.90;;;17.80;97.70;;;;;;7390560;19;20578;-76
2023/06/04 04:01:18;;;;;;;3.83;2.00;;;17.70;97.70;;;;;;7391155;19;20178;-78
2023/06/04 04:03:48;;;;;;;3.17;2.22;;;17.70;98.00;;;;;;7390384;19;20163;-75
2023/06/04 04:06:14;;;;;;;3.00;2.10;;;18.00;97.70;;;;;;7391634;19;20142;-77
2023/06/04 04:08:42;;;;;;;3.65;2.30;;;18.10;97.00;;;;;;7393733;19;20446;-77
2023/06/04 04:11:13;;;;;;;3.30;2.28;;;18.10;97.20;;;;;;7393284;19;20134;-76
2023/06/04 04:13:39;;;;;;;4.55;2.53;;;18.00;97.20;;;;;;7394016;19;20127;-76
2023/06/04 04:16:05;;;;;;;6.00;2.30;;;18.00;97.50;;;;;;7391149;19;20324;-78
2023/06/04 04:18:35;;;;;;;4.30;2.53;;;18.00;97.60;;;;;;7389796;19;20494;-78
2023/06/04 04:21:01;;;;;;;4.38;2.25;;;17.90;97.80;;;;;;7392618;19;20134;-77
2023/06/04 04:23:28;;;;;;;3.67;2.20;;;17.80;98.10;;;;;;7391649;19;20138;-75
2023/06/04 04:25:56;;;;;;;3.78;2.30;;;17.80;98.30;;;;;;7392051;19;20149;-76
2023/06/04 04:28:22;;;;;;;3.33;2.55;;;17.70;98.50;;;;;;7392357;19;20119;-77
2023/06/04 04:30:48;;;;;;;3.90;2.30;;;17.60;99.00;;;;;;7393077;19;20162;-76
2023/06/04 04:33:15;;;;;;;6.28;2.40;;;17.60;98.90;;;;;;7390635;19;20134;-76
2023/06/04 04:35:44;;;;;;;3.10;2.33;;;17.70;98.90;;;;;;7392031;19;20146;-76
2023/06/04 04:38:11;;;;;;;5.00;2.67;;;17.60;99.00;;;;;;7390775;19;20138;-76
2023/06/04 04:40:37;;;;;;;4.13;2.30;;;17.60;99.30;;;;;;7389875;19;20138;-76
2023/06/04 04:43:05;;;;;;;3.80;2.75;;;17.60;99.40;;;;;;7391038;19;20158;-76
2023/06/04 04:45:30;;;;;;;3.33;2.45;;;17.60;99.50;;;;;;7390419;19;20135;-75
2023/06/04 04:47:56;;;;;;;3.05;2.25;;;17.60;99.20;;;;;;7391590;19;20122;-76
2023/06/04 04:50:22;;;;;;;2.88;2.20;;;17.60;99.30;;;;;;7390077;19;20135;-76
2023/06/04 04:52:47;;;;;;;4.00;2.60;;;17.50;99.30;;;;;;7389903;19;20150;-76
2023/06/04 04:55:13;;;;;;;3.95;2.20;;;17.50;99.00;;;;;;7392041;19;20163;-76
2023/06/04 04:57:39;;;;;;;2.90;2.28;;;17.50;98.60;;;;;;7387640;19;20135;-75
2023/06/04 05:00:09;;;;;;;7.05;2.33;;;17.40;98.70;;;;;;7394054;19;20558;-76
2023/06/04 05:02:35;;;;;;;4.05;2.53;;;17.50;98.90;;;;;;7390060;19;20131;-76
2023/06/04 05:05:02;;;;;;;3.03;2.08;;;17.50;98.50;;;;;;7392960;19;20838;-76
2023/06/04 05:07:28;;;;;;;3.80;2.30;;;17.50;98.50;;;;;;7389320;19;20130;-76
2023/06/04 05:09:54;;;;;;;4.20;2.30;;;17.50;98.40;;;;;;7391710;19;20268;-76
2023/06/04 05:12:20;;;;;;;4.32;2.22;;;17.60;98.30;;;;;;7391991;19;20138;-76
2023/06/04 05:14:47;;;;;;;2.53;2.13;;;17.60;98.20;;;;;;7390286;19;20168;-75
2023/06/04 05:17:16;;;;;;;3.67;2.25;;;17.70;98.20;;;;;;7392834;19;20135;-76
2023/06/04 05:19:42;;;;;;;3.10;2.00;;;17.70;98.30;;;;;;7390006;19;20214;-75
2023/06/04 05:22:08;;;;;;;4.10;2.30;;;17.80;98.20;;;;;;7389806;19;20160;-76
2023/06/04 05:24:34;;;;;;;6.55;4.20;;;17.80;97.70;;;;;;7391506;19;20229;-76
2023/06/04 05:27:00;;;;;;;3.70;2.47;;;17.80;97.70;;;;;;7389114;19;20204;-76
2023/06/04 05:29:25;;;;;;;3.10;2.08;;;17.70;97.70;;;;;;7391302;19;20214;-76
2023/06/04 05:31:51;;;;;;;3.63;1.92;;;17.90;97.20;;;;;;7389069;19;20139;-76
2023/06/04 05:34:18;;;;;;;3.60;1.90;;;18.00;97.10;;;;;;7389805;19;20151;-76
2023/06/04 05:36:44;;;;;;;3.35;2.08;;;18.10;96.60;;;;;;7387831;19;20139;-76
2023/06/04 05:39:10;;;;;;;2.60;1.98;;;18.10;96.70;;;;;;7387515;19;20158;-76
2023/06/04 05:41:36;;;;;;;3.80;2.00;;;18.10;96.70;;;;;;7390583;19;20146;-75
2023/06/04 05:44:02;;;;;;;2.65;1.85;;;18.20;96.60;;;;;;7390884;19;20143;-74
2023/06/04 05:46:29;;;;;;;3.65;2.00;;;18.30;96.30;;;;;;7387985;19;20206;-74
2023/06/04 05:48:54;;;;;;;2.17;1.55;;;18.20;96.40;;;;;;7390303;19;20158;-75
2023/06/04 05:51:22;;;;;;;2.40;1.52;;;18.10;96.40;;;;;;7388370;19;20582;-75
2023/06/04 05:53:48;;;;;;;3.22;2.10;;;18.10;96.60;;;;;;7389664;19;20135;-75
2023/06/04 05:56:14;;;;;;;3.17;1.70;;;18.10;96.50;;;;;;7390732;19;20139;-75
2023/06/04 05:58:39;;;;;;;2.22;1.70;;;18.20;96.50;;;;;;7390888;19;20135;-75
2023/06/04 06:01:06;;;;;;;4.07;1.90;;;18.30;96.50;;;;;;7390154;19;20154;-75
2023/06/04 06:03:32;;;;;;;3.88;2.03;;;18.40;96.50;;;;;;7385374;19;20131;-75
2023/06/04 06:05:59;;;;;;;2.15;1.58;;;18.30;96.60;;;;;;7387857;19;20659;-76
2023/06/04 06:08:25;;;;;;;6.35;1.85;;;18.30;96.60;;;;;;7385866;19;20135;-76
2023/06/04 06:10:51;;;;;;;3.45;1.63;;;18.30;96.30;;;;;;7390666;19;20149;-77
2023/06/04 06:13:17;;;;;;;2.30;1.60;;;18.30;95.80;;;;;;7385405;19;20126;-76
2023/06/04 06:15:43;;;;;;;2.40;1.63;;;18.40;95.50;;;;;;7386289;19;20130;-75
2023/06/04 06:18:09;;;;;;;2.15;1.65;;;19.10;94.20;;;;;;7385340;19;20224;-75
2023/06/04 06:20:34;;;;;;;1.70;1.40;;;20.70;92.30;;;;;;7385739;19;20154;-75
2023/06/04 06:23:07;;;;;;;3.65;1.70;;;22.60;87.70;;;;;;7384991;19;20576;-75
2023/06/04 06:25:32;;;;;;;2.53;1.70;;;24.10;82.80;;;;;;7388779;19;20150;-74
2023/06/04 06:27:58;;;;;;;2.65;1.70;;;24.90;80.20;;;;;;7387800;19;20130;-75
2023/06/04 06:30:24;;;;;;;3.55;1.88;;;25.20;77.90;;;;;;7391717;19;20141;-76
2023/06/04 06:32:50;;;;;;;2.15;1.58;;;26.00;76.20;;;;;;7389328;19;20831;-75
2023/06/04 06:35:17;;;;;;;3.47;1.58;;;26.60;74.10;;;;;;7388910;19;20141;-75
2023/06/04 06:37:43;;;;;;;4.95;1.48;;;26.70;72.30;;;;;;7389234;19;20537;-75
2023/06/04 06:40:10;;;;;;;2.95;1.42;;;26.90;71.50;;;;;;7390337;19;20139;-74
2023/06/04 06:42:35;;;;;;;2.33;1.38;;;27.10;69.90;;;;;;7389222;19;20493;-75
2023/06/04 06:45:01;;;;;;;1.70;1.33;;;26.60;69.40;;;;;;7389006;19;20133;-75
2023/06/04 06:47:28;;;;;;;2.83;1.30;;;26.70;69.20;;;;;;7386377;19;20497;-75
2023/06/04 06:49:54;;;;;;;1.52;1.40;;;25.50;69.90;;;;;;7388592;19;20152;-75
2023/06/04 06:52:20;;;;;;;2.83;1.30;;;24.10;73.00;;;;;;7390165;19;20246;-75
2023/06/04 06:54:46;;;;;;;2.65;1.33;;;23.30;74.90;;;;;;7387996;19;20155;-74
2023/06/04 06:57:13;;;;;;;2.22;1.50;;;22.30;77.60;;;;;;7389696;19;20134;-74
2023/06/04 06:59:38;;;;;;;1.52;1.20;;;21.40;80.60;;;;;;7383760;19;20519;-74
2023/06/04 07:02:06;;;;;;;1.40;1.25;;;21.20;81.30;;;;;;7387221;19;20153;-74
2023/06/04 07:04:31;;;;;;;1.90;1.30;;;20.90;83.30;;;;;;7387640;19;20138;-76
2023/06/04 07:06:58;;;;;;;6.35;1.73;;;21.30;83.70;;;;;;7390139;19;20151;-75
2023/06/04 07:09:25;;;;;;;2.65;1.60;;;22.90;80.90;;;;;;7389247;19;20210;-75
2023/06/04 07:11:51;;;;;;;3.13;1.65;;;24.30;77.40;;;;;;7387687;19;20611;-77
2023/06/04 07:14:17;;;;;;;2.38;1.70;;;25.20;74.90;;;;;;7388945;19;20161;-76
2023/06/04 07:16:42;;;;;;;2.83;1.92;;;25.70;73.10;;;;;;7389606;19;20138;-76
2023/06/04 07:19:08;;;;;;;3.00;1.77;;;25.50;72.90;;;;;;7390324;19;20146;-79
2023/06/04 07:21:34;;;;;;;3.30;1.70;;;25.10;74.40;;;;;;7390396;19;20130;-80
2023/06/04 07:24:00;;;;;;;4.85;1.75;;;25.00;74.00;;;;;;7394856;19;20190;-77
2023/06/04 07:26:26;;;;;;;2.08;1.67;;;24.80;74.50;;;;;;7396182;19;20135;-78
2023/06/04 07:28:52;;;;;;;3.88;1.45;;;24.80;74.80;;;;;;7398734;19;20146;-76
2023/06/04 07:31:18;;;;;;;1.83;1.48;;;25.00;75.30;;;;;;7396092;19;20656;-77
2023/06/04 07:33:44;;;;;;;2.97;1.65;;;25.90;73.80;;;;;;7397164;19;20126;-80
2023/06/04 07:36:14;;;;;;;2.97;1.88;;;26.10;72.60;;;;;;7395624;19;20205;-76
2023/06/04 07:38:42;;;;;;;2.72;1.45;;;26.40;71.90;;;;;;7392560;19;20131;-75
2023/06/04 07:41:09;;;;;;;5.68;1.73;;;25.90;72.10;;;;;;7390900;19;20126;-78
2023/06/04 07:43:38;;;;;;;2.80;1.70;;;25.40;73.10;;;;;;7384917;19;20169;-81
2023/06/04 07:46:04;;;;;;;2.30;1.30;;;25.30;73.60;;;;;;7389736;19;20151;-76
2023/06/04 07:48:31;;;;;;;2.70;1.63;;;24.70;74.10;;;;;;7389232;19;20137;-78
2023/06/04 07:51:01;;;;;;;1.67;1.30;;;24.20;75.30;;;;;;7388651;19;20162;-79
2023/06/04 07:53:27;;;;;;;2.65;1.90;;;23.70;76.50;;;;;;7385926;19;20127;-76
2023/06/04 07:55:53;;;;;;;2.20;1.58;;;23.40;77.70;;;;;;7386570;19;20131;-77
2023/06/04 07:58:19;;;;;;;2.22;1.60;;;22.90;79.20;;;;;;7381739;19;20174;-78
2023/06/04 08:00:45;;;;;;;2.70;1.70;;;22.40;80.50;;;;;;7387158;19;20127;-77
2023/06/04 08:03:11;;;;;;;2.85;1.58;;;22.10;81.60;;;;;;7383143;19;20164;-76
2023/06/04 08:05:40;;;;;;;3.25;1.70;;;21.80;82.70;;;;;;7384476;19;20162;-76
2023/06/04 08:08:06;;;;;;;3.85;1.50;;;21.90;83.30;;;;;;7380771;19;20607;-76
2023/06/04 08:10:32;;;;;;;2.67;1.90;;;22.80;82.30;;;;;;7382633;19;20144;-77
2023/06/04 08:12:58;;;;;;;2.17;1.77;;;23.70;79.90;;;;;;7383469;19;20155;-76
2023/06/04 08:15:23;;;;;;;3.97;1.55;;;24.30;78.20;;;;;;7385535;19;20145;-76
2023/06/04 08:17:50;;;;;;;4.03;1.80;;;24.50;77.50;;;;;;7379651;19;20146;-76
2023/06/04 08:20:16;;;;;;;1.90;1.70;;;24.60;77.30;;;;;;7380893;19;20142;-77
2023/06/04 08:22:42;;;;;;;2.00;1.52;;;24.80;77.20;;;;;;7378544;19;20233;-77
2023/06/04 08:25:08;;;;;;;3.72;1.98;;;25.30;76.50;;;;;;7366782;19;20159;-78
2023/06/04 08:31:17;;;;;;;2.55;1.90;;;25.50;74.90;;;;;;7356236;19;20135;-76
2023/06/04 08:33:46;;;;;;;2.90;1.70;;;25.20;75.50;;;;;;7387323;19;20142;-76
2023/06/04 08:36:11;;;;;;;3.17;1.45;;;25.20;76.10;;;;;;7388873;19;20484;-76
2023/06/04 08:38:38;;;;;;;2.35;1.80;;;25.10;76.10;;;;;;7387037;19;20158;-76
2023/06/04 08:41:17;;;;;;;3.05;1.85;;;25.00;76.30;;;;;;7389401;19;20246;-76
2023/06/04 08:43:46;;;;;;;3.08;1.80;;;25.00;77.10;;;;;;7384457;19;20167;-78
2023/06/04 08:46:22;;;;;;;2.83;1.80;;;24.90;77.10;;;;;;7388437;19;20287;-78
2023/06/04 08:48:50;;;;;;;2.92;1.95;;;25.10;77.40;;;;;;7388889;19;20262;-79
2023/06/04 08:51:16;;;;;;;2.28;1.90;;;24.90;77.80;;;;;;7390060;19;20162;-76
2023/06/04 08:53:47;;;;;;;2.80;1.60;;;24.70;78.70;;;;;;7391671;19;20179;-78
2023/06/04 08:56:13;;;;;;;2.40;1.52;;;24.60;78.60;;;;;;7388531;19;20131;-77
2023/06/04 08:58:41;;;;;;;2.75;1.90;;;24.60;78.60;;;;;;7390073;19;20176;-78
2023/06/04 09:01:08;;;;;;;1.63;1.45;;;24.70;78.50;;;;;;7388101;19;20585;-77
2023/06/04 09:03:37;;;;;;;4.55;1.50;;;24.50;79.40;;;;;;7389018;19;20166;-78
2023/06/04 09:06:05;;;;;;;2.58;1.58;;;24.20;79.70;;;;;;7390086;19;20174;-77
2023/06/04 09:08:35;;;;;;;4.03;1.60;;;24.00;80.20;;;;;;7388763;19;20167;-79
2023/06/04 09:11:05;;;;;;;2.20;1.83;;;24.00;81.30;;;;;;7388954;19;20131;-78
2023/06/04 09:13:32;;;;;;;3.63;1.77;;;24.20;80.40;;;;;;7387472;19;20130;-79
2023/06/04 09:16:07;;;;;;;2.47;1.73;;;24.10;80.40;;;;;;7389068;19;20481;-79
2023/06/04 09:18:33;;;;;;;2.75;1.88;;;24.00;80.90;;;;;;7387856;19;20487;-80
2023/06/04 09:21:07;;;;;;;1.75;1.60;;;24.00;81.40;;;;;;7388609;19;20154;-79
2023/06/04 09:23:47;;;;;;;2.80;1.80;;;24.00;80.90;;;;;;7389425;19;20614;-79
2023/06/04 09:26:14;;;;;;;2.42;1.75;;;24.20;80.80;;;;;;7387300;19;20225;-76
2023/06/04 09:28:41;;;;;;;10.50;1.83;;;24.40;79.90;;;;;;7390040;19;20239;-79
2023/06/04 09:31:13;;;;;;;2.67;1.75;;;24.60;78.60;;;;;;7387570;19;20146;-81
2023/06/04 09:33:48;;;;;;;2.42;1.58;;;24.60;78.50;;;;;;7388509;19;20145;-82
2023/06/04 09:36:14;;;;;;;3.90;1.90;;;24.60;78.30;;;;;;7389549;19;20141;-81
2023/06/04 09:38:41;;;;;;;2.40;1.80;;;24.60;78.10;;;;;;7386190;19;20139;-81
2023/06/04 09:41:14;;;;;;;2.55;1.90;;;24.60;77.20;;;;;;7388779;19;20153;-83
2023/06/04 09:43:40;;;;;;;4.75;1.70;;;24.90;78.00;;;;;;7385990;19;20182;-81
2023/06/04 09:46:13;;;;;;;1.90;1.67;;;24.90;77.60;;;;;;7389286;19;20168;-79
2023/06/04 09:48:40;;;;;;;1.75;1.48;;;24.70;78.40;;;;;;7390402;19;20436;-79
2023/06/04 09:51:10;;;;;;;3.85;1.70;;;24.70;79.00;;;;;;7385569;19;20157;-78
2023/06/04 09:53:37;;;;;;;2.75;1.80;;;24.70;78.90;;;;;;7388779;19;20196;-79
2023/06/04 09:56:04;;;;;;;3.78;2.30;;;24.70;78.60;;;;;;7387779;19;20155;-78
2023/06/04 09:58:31;;;;;;;5.80;2.33;;;24.70;75.70;;;;;;7386842;19;20142;-79
2023/06/04 10:01:01;;;;;;;3.47;2.20;;;24.80;74.60;;;;;;7388378;19;20140;-80
2023/06/04 10:03:35;;;;;;;3.60;2.05;;;24.90;74.90;;;;;;7391272;19;20591;-79
2023/06/04 10:06:04;;;;;;;3.47;2.30;;;24.80;75.90;;;;;;7387806;19;20153;-78
2023/06/04 10:08:31;;;;;;;3.45;1.83;;;25.00;76.10;;;;;;7387386;19;20158;-78
2023/06/04 10:11:02;;;;;;;3.85;2.13;;;25.20;73.60;;;;;;7386290;19;20142;-82
2023/06/04 10:13:40;;;;;;;2.58;2.10;;;25.30;73.30;;;;;;7389613;19;20150;-80
2023/06/04 10:16:07;;;;;;;2.88;1.80;;;25.40;74.60;;;;;;7388434;19;20134;-80
2023/06/04 10:18:34;;;;;;;2.03;1.73;;;25.30;73.70;;;;;;7390596;19;20489;-79
2023/06/04 10:21:00;;;;;;;2.78;2.05;;;25.20;73.80;;;;;;7388402;19;20257;-77
2023/06/04 10:23:29;;;;;;;2.60;1.90;;;25.20;74.80;;;;;;7388275;19;20131;-75
2023/06/04 10:25:56;;;;;;;3.25;1.70;;;25.30;74.50;;;;;;7389417;19;20142;-76
2023/06/04 10:28:22;;;;;;;3.97;2.08;;;25.30;72.70;;;;;;7389610;19;20458;-77
2023/06/04 10:30:50;;;;;;;3.10;2.25;;;25.30;72.40;;;;;;7387905;19;20227;-74
2023/06/04 10:33:23;;;;;;;4.95;2.28;;;25.30;72.60;;;;;;7387930;19;20159;-75
2023/06/04 10:35:54;;;;;;;5.40;2.20;;;25.20;73.60;;;;;;7387387;19;20206;-75
2023/06/04 10:38:21;;;;;;;2.42;1.95;;;25.30;73.60;;;;;;7385144;19;20138;-74
2023/06/04 10:40:47;;;;;;;3.05;1.95;;;25.30;74.10;;;;;;7385004;19;20214;-73
2023/06/04 10:43:15;;;;;;;4.45;2.15;;;25.20;73.60;;;;;;7384472;19;20150;-74
2023/06/04 10:45:42;;;;;;;4.40;2.30;;;25.20;73.60;;;;;;7386719;19;20147;-74
2023/06/04 10:48:10;;;;;;;4.00;2.53;;;25.30;74.50;;;;;;7375021;19;20134;-75
2023/06/04 10:50:49;;;;;;;6.07;2.50;;;25.50;75.00;;;;;;7386876;19;20150;-74
2023/06/04 10:53:16;;;;;;;3.35;2.50;;;25.50;73.70;;;;;;7388183;19;20127;-74
2023/06/04 10:55:46;;;;;;;3.78;2.20;;;25.50;73.40;;;;;;7386518;19;20141;-73
2023/06/04 10:58:15;;;;;;;2.78;1.98;;;25.30;73.40;;;;;;7386606;19;20190;-74
2023/06/04 11:00:47;;;;;;;2.58;2.22;;;25.20;73.50;;;;;;7385296;19;21041;-75
2023/06/04 11:03:13;;;;;;;3.10;2.15;;;25.00;73.40;;;;;;7386546;19;20134;-74
2023/06/04 11:05:48;;;;;;;4.45;2.50;;;25.00;73.90;;;;;;7388164;19;20130;-76
2023/06/04 11:08:28;;;;;;;2.58;2.20;;;25.10;75.10;;;;;;7386670;19;20130;-74
2023/06/04 11:11:16;;;;;;;2.42;2.15;;;25.20;73.60;;;;;;7385030;19;20131;-78
2023/06/04 11:13:43;;;;;;;3.53;2.00;;;25.40;72.50;;;;;;7383944;19;20174;-73
2023/06/04 11:16:20;;;;;;;2.92;2.03;;;25.20;72.50;;;;;;7385818;19;20135;-75
2023/06/04 11:19:02;;;;;;;3.85;2.65;;;25.10;72.80;;;;;;7384772;19;20193;-72
2023/06/04 11:21:28;;;;;;;3.40;2.50;;;25.10;72.80;;;;;;7386338;19;20141;-74
2023/06/04 11:24:00;;;;;;;4.72;2.50;;;25.20;72.40;;;;;;7386738;19;20582;-75
2023/06/04 11:26:34;;;;;;;2.67;2.08;;;25.10;72.40;;;;;;7383675;19;20150;-76
2023/06/04 11:29:01;;;;;;;3.22;2.08;;;25.20;72.50;;;;;;7384248;19;20567;-75
2023/06/04 11:31:27;;;;;;;2.95;2.13;;;25.20;71.80;;;;;;7382173;19;20151;-75
2023/06/04 11:33:53;;;;;;;2.55;2.20;;;25.20;72.50;;;;;;7387305;19;20134;-74
2023/06/04 11:36:23;;;;;;;3.65;2.03;;;25.30;72.20;;;;;;7383361;19;20131;-74
2023/06/04 11:39:05;;;;;;;2.58;2.30;;;25.40;71.60;;;;;;7382513;19;20206;-74
2023/06/04 11:41:32;;;;;;;2.67;2.13;;;25.20;71.60;;;;;;7383266;19;20202;-74
2023/06/04 11:44:02;;;;;;;3.17;2.50;;;25.30;71.00;;;;;;7384573;19;20740;-74
2023/06/04 11:46:28;;;;;;;2.72;2.10;;;25.30;71.10;;;;;;7384239;19;20135;-74
2023/06/04 11:48:54;;;;;;;2.63;2.35;;;25.30;71.00;;;;;;7382252;19;20134;-76
2023/06/04 11:51:21;;;;;;;6.32;2.38;;;25.40;71.10;;;;;;7384574;19;20164;-74
2023/06/04 11:53:47;;;;;;;4.82;2.13;;;25.40;71.10;;;;;;7383391;19;20456;-74
2023/06/04 11:56:13;;;;;;;3.60;2.40;;;25.50;70.50;;;;;;7386607;19;20162;-74
2023/06/04 11:58:40;;;;;;;2.65;2.33;;;25.50;70.50;;;;;;7382339;19;20133;-74
2023/06/04 12:01:08;;;;;;;4.88;2.83;;;25.70;70.30;;;;;;7384194;19;20505;-73
2023/06/04 12:03:39;;;;;;;4.65;3.03;;;25.70;69.90;;;;;;7383198;19;20172;-73
2023/06/04 12:06:18;;;;;;;4.82;2.80;;;25.60;70.20;;;;;;7385527;19;20145;-73
2023/06/04 12:08:53;;;;;;;3.78;2.63;;;25.80;69.80;;;;;;7389685;19;20589;-74
2023/06/04 12:11:31;;;;;;;6.43;2.80;;;25.80;69.40;;;;;;7391395;19;20141;-77
2023/06/04 12:13:58;;;;;;;5.53;2.70;;;25.90;69.20;;;;;;7392286;19;20246;-77
2023/06/04 12:16:24;;;;;;;4.65;3.15;;;25.80;69.30;;;;;;7389819;19;20176;-78
2023/06/04 12:18:50;;;;;;;5.97;2.83;;;25.70;69.20;;;;;;7391813;19;20130;-77
2023/06/04 12:21:26;;;;;;;4.57;2.60;;;25.80;69.40;;;;;;7388401;19;20146;-79
2023/06/04 12:24:18;;;;;;;4.68;2.80;;;25.80;69.20;;;;;;7389215;19;20256;-77
2023/06/04 12:26:44;;;;;;;2.42;2.22;;;25.90;68.50;;;;;;7388807;19;20150;-79
2023/06/04 12:29:11;;;;;;;3.67;2.33;;;26.00;68.30;;;;;;7388485;19;20145;-76
2023/06/04 12:31:42;;;;;;;4.95;2.75;;;25.90;68.60;;;;;;7389845;19;20661;-77
2023/06/04 12:34:07;;;;;;;3.50;2.10;;;25.90;69.00;;;;;;7387896;19;20153;-77
2023/06/04 12:36:33;;;;;;;3.05;2.70;;;26.00;69.70;;;;;;7387794;19;20143;-79
2023/06/04 12:39:01;;;;;;;6.43;3.75;;;26.20;68.60;;;;;;7387122;19;20142;-79
2023/06/04 12:41:28;;;;;;;3.83;2.80;;;26.30;67.80;;;;;;7391838;19;20146;-80
2023/06/04 12:43:54;;;;;;;4.47;2.80;;;26.30;67.20;;;;;;7386675;19;20648;-79
2023/06/04 12:46:21;;;;;;;3.78;2.47;;;26.10;66.80;;;;;;7392228;19;20515;-76
2023/06/04 12:48:48;;;;;;;3.70;2.75;;;26.00;67.10;;;;;;7390831;19;20165;-77
2023/06/04 12:51:14;;;;;;;5.05;2.92;;;25.90;67.70;;;;;;7389830;19;20169;-78
2023/06/04 12:53:43;;;;;;;3.75;2.40;;;25.80;67.80;;;;;;7390090;19;20134;-81
2023/06/04 12:56:09;;;;;;;2.63;2.33;;;25.90;68.80;;;;;;7392178;19;20495;-79